Time;durP1;ratioP1;P1;durP2;ratioP2;P2;SDS_P1;SDS_P2;PMS_P1;PMS_P2;Temp;Humidity;BMP_temperature;BMP_pressure;BME280_temperature;BME280_humidity;BME280_pressure;Samples;Min_cycle;Max_cycle;Signal;HPM_P1;HPM_P2
2022/07/29 00:01:43;;;;;;;8.80;4.07;;;20.20;99.90;;;20.61;56.92;101656.50;5054272;28;20106;-69
2022/07/29 00:04:13;;;;;;;7.88;3.45;;;20.20;99.90;;;20.57;56.68;101653.03;5054412;28;20055;-69
2022/07/29 00:06:42;;;;;;;9.18;3.33;;;20.20;99.90;;;20.36;56.96;101616.09;5053849;28;20127;-69
2022/07/29 00:09:10;;;;;;;5.32;3.78;;;20.20;99.90;;;20.44;56.89;101645.44;5054076;28;20041;-69
2022/07/29 00:11:40;;;;;;;5.70;3.47;;;20.20;99.90;;;20.36;57.15;101639.41;5053770;28;20044;-69
2022/07/29 00:14:09;;;;;;;7.07;3.40;;;20.10;99.90;;;20.47;57.28;101638.13;5053754;28;20566;-69
2022/07/29 00:16:38;;;;;;;3.88;3.05;;;20.10;99.90;;;20.36;57.47;101648.34;5053656;28;20057;-69
2022/07/29 00:19:06;;;;;;;4.30;3.42;;;20.00;99.90;;;20.39;57.30;101642.88;5053561;28;20120;-69
2022/07/29 00:21:35;;;;;;;4.13;3.08;;;20.00;99.90;;;20.19;57.37;101614.91;5053517;28;20463;-69
2022/07/29 00:24:04;;;;;;;3.83;3.20;;;20.00;99.90;;;20.35;57.40;101643.03;5053585;28;20037;-69
2022/07/29 00:26:32;;;;;;;5.20;4.05;;;20.00;99.90;;;20.29;57.63;101638.72;5053785;28;20497;-69
2022/07/29 00:29:04;;;;;;;3.88;3.40;;;19.90;99.90;;;19.62;57.49;101520.91;5052454;28;20574;-69
2022/07/29 00:31:53;;;;;;;7.85;3.67;;;19.90;99.90;;;20.36;57.92;101639.41;5053444;28;20047;-69
2022/07/29 00:37:07;;;;;;;5.38;3.67;;;19.90;99.90;;;20.32;57.81;101633.28;5053423;28;20090;-69
2022/07/29 00:39:36;;;;;;;4.05;3.60;;;19.90;99.90;;;20.27;57.52;101635.22;5053274;28;20499;-69
2022/07/29 00:42:05;;;;;;;5.32;3.17;;;19.90;99.90;;;20.24;57.79;101629.94;5053264;28;20041;-69
2022/07/29 00:44:39;;;;;;;5.45;3.50;;;19.90;99.90;;;20.17;58.05;101600.59;5053304;28;20044;-69
2022/07/29 00:47:08;;;;;;;5.10;3.20;;;19.90;99.90;;;20.26;57.84;101611.06;5052189;28;20048;-69
2022/07/29 00:49:37;;;;;;;5.28;3.35;;;20.00;99.90;;;20.42;57.76;101623.94;5053115;28;20037;-69
2022/07/29 00:52:08;;;;;;;3.92;3.13;;;20.00;99.90;;;20.42;57.76;101626.63;5053336;28;20073;-69
2022/07/29 00:54:38;;;;;;;4.20;3.17;;;20.00;99.90;;;20.46;57.73;101625.63;5052622;28;20037;-69
2022/07/29 00:57:13;;;;;;;5.70;3.58;;;20.10;99.90;;;20.23;57.81;101625.47;5053428;28;20041;-69
2022/07/29 00:59:42;;;;;;;5.25;3.28;;;20.00;99.90;;;20.20;58.18;101613.97;5052962;28;20139;-69
2022/07/29 01:02:11;;;;;;;6.63;3.80;;;19.90;99.90;;;20.28;58.23;101614.59;5053369;28;20487;-69
2022/07/29 01:04:40;;;;;;;4.70;3.30;;;19.90;99.90;;;20.22;58.15;101604.94;5053212;28;20123;-69
2022/07/29 01:07:09;;;;;;;4.00;3.42;;;19.90;99.90;;;20.20;58.26;101608.59;5053011;28;20383;-69
2022/07/29 01:09:39;;;;;;;4.47;3.70;;;19.90;99.90;;;20.33;58.02;101613.50;5052707;28;20128;-69
2022/07/29 01:12:16;;;;;;;7.70;3.20;;;19.90;99.90;;;20.31;58.21;101611.78;5053027;28;20393;-69
2022/07/29 01:14:47;;;;;;;5.93;3.40;;;19.90;99.90;;;20.32;58.21;101603.72;5052895;28;20041;-70
2022/07/29 01:17:22;;;;;;;6.07;3.40;;;20.00;99.90;;;20.26;58.33;101603.91;5052805;28;20512;-69
2022/07/29 01:20:01;;;;;;;6.38;3.30;;;19.90;99.90;;;20.32;58.37;101605.50;5052641;28;20069;-69
2022/07/29 01:22:42;;;;;;;3.75;3.45;;;19.90;99.90;;;19.77;58.45;101537.41;5053047;28;20451;-69
2022/07/29 01:25:45;;;;;;;3.38;3.05;;;20.00;99.90;;;20.40;58.20;101609.69;5052743;28;20495;-69
2022/07/29 01:28:53;;;;;;;5.85;3.95;;;20.00;99.90;;;20.38;58.22;101608.84;5052870;28;20057;-69
2022/07/29 01:31:29;;;;;;;4.53;3.28;;;20.00;99.90;;;20.28;58.45;101607.41;5039071;28;20171;-69
2022/07/29 01:34:04;;;;;;;7.32;3.50;;;20.00;99.90;;;20.26;58.58;101606.59;5052907;28;20044;-69
2022/07/29 01:36:38;;;;;;;4.63;2.85;;;19.90;99.90;;;20.05;58.82;101588.44;5052601;28;20045;-69
2022/07/29 01:39:13;;;;;;;7.43;3.00;;;19.80;99.90;;;19.88;59.18;101566.59;5052621;28;20037;-69
2022/07/29 01:41:53;;;;;;;8.20;3.65;;;19.70;99.90;;;19.89;59.34;101568.34;5052786;28;20045;-69
2022/07/29 01:44:28;;;;;;;;;;;19.70;99.90;;;20.10;59.33;101596.34;5053517;28;20514;-70
2022/07/29 01:47:00;;;;;;;4.05;3.03;;;19.80;99.90;;;19.97;59.45;101582.44;5052481;28;19964;-69
2022/07/29 01:49:34;;;;;;;8.02;3.40;;;19.70;99.90;;;19.98;59.48;101583.28;5052667;28;20045;-69
2022/07/29 01:52:08;;;;;;;6.80;3.50;;;19.70;99.90;;;19.85;59.81;101593.53;5052416;28;20136;-69
2022/07/29 01:54:43;;;;;;;6.28;3.47;;;19.60;99.90;;;19.65;59.98;101563.72;5052439;28;20068;-69
2022/07/29 01:57:18;;;;;;;4.90;3.15;;;19.50;99.90;;;19.17;59.88;101473.94;5052423;28;20045;-69
2022/07/29 01:59:49;;;;;;;4.90;3.50;;;19.50;99.90;;;19.85;60.26;101582.81;5052152;28;20048;-69
2022/07/29 02:02:19;;;;;;;5.90;3.50;;;19.50;99.90;;;19.86;60.11;101589.06;5052274;28;20045;-69
2022/07/29 02:04:49;;;;;;;8.90;4.05;;;19.50;99.90;;;19.77;60.35;101577.69;5052309;28;20114;-69
2022/07/29 02:07:22;;;;;;;8.25;3.90;;;19.50;99.90;;;19.72;60.42;101576.06;5054648;28;20102;-69
2022/07/29 02:09:52;;;;;;;7.75;3.25;;;19.40;99.90;;;19.63;60.61;101553.06;5056319;28;20437;-69
2022/07/29 02:12:23;;;;;;;8.32;3.58;;;19.50;99.90;;;19.87;60.37;101577.38;5054477;28;20045;-61
2022/07/29 02:14:55;;;;;;;4.30;3.20;;;19.50;99.90;;;19.67;60.70;101581.56;5055856;28;20040;-62
2022/07/29 02:17:28;;;;;;;8.38;3.45;;;19.40;99.90;;;19.57;61.05;101593.50;5054912;28;20566;-61
2022/07/29 02:20:03;;;;;;;4.50;3.20;;;19.30;99.90;;;19.48;60.99;101555.31;5056035;28;20072;-62
2022/07/29 02:22:36;;;;;;;5.97;3.40;;;19.30;99.90;;;19.70;61.18;101570.72;5069841;28;20056;-61
2022/07/29 02:25:07;;;;;;;7.35;3.40;;;19.30;99.90;;;18.95;60.93;101446.03;5055906;28;20095;-61
2022/07/29 02:27:44;;;;;;;6.85;3.35;;;19.30;99.90;;;19.68;60.85;101582.44;5055656;28;20453;-62
2022/07/29 02:30:14;;;;;;;3.75;3.35;;;19.40;99.90;;;19.72;60.96;101582.28;5054612;28;20049;-62
2022/07/29 02:32:44;;;;;;;6.20;3.80;;;19.40;99.90;;;19.62;60.89;101548.63;5055513;28;20445;-62
2022/07/29 02:35:16;;;;;;;6.28;3.10;;;19.40;99.90;;;19.76;60.82;101567.00;5055516;28;20129;-62
2022/07/29 02:38:49;;;;;;;6.38;3.65;;;19.50;99.90;;;19.31;60.47;101546.84;5071162;28;20041;-62
2022/07/29 02:40:39;;;;;;;6.20;3.97;;;19.50;99.90;;;19.92;60.44;101567.41;5055237;28;20091;-62
2022/07/29 02:43:09;;;;;;;5.47;3.92;;;19.50;99.90;;;19.66;60.49;101523.44;5055620;28;20052;-62
2022/07/29 02:45:39;;;;;;;4.50;3.20;;;19.50;99.90;;;19.42;60.62;101483.94;5055338;28;20487;-62
2022/07/29 02:48:16;;;;;;;4.88;3.15;;;19.50;99.90;;;19.88;60.28;101571.09;5055231;28;20128;-61
2022/07/29 02:50:51;;;;;;;6.60;3.63;;;19.50;99.90;;;19.70;60.34;101540.31;5055270;28;20053;-62
2022/07/29 02:53:22;;;;;;;6.57;3.83;;;19.50;99.90;;;19.68;60.56;101569.03;5054282;28;20388;-62
2022/07/29 02:55:57;;;;;;;4.13;3.15;;;19.40;99.90;;;18.08;60.56;101289.53;5055154;28;20041;-62
2022/07/29 02:58:29;;;;;;;5.13;3.50;;;19.30;99.90;;;19.64;60.81;101552.13;5054161;28;20405;-62
2022/07/29 03:01:03;;;;;;;4.47;3.33;;;19.40;99.90;;;19.42;60.89;101516.13;5054890;28;20406;-62
2022/07/29 03:03:38;;;;;;;4.50;3.70;;;19.30;99.90;;;19.62;60.69;101556.69;5055080;28;20045;-62
2022/07/29 03:06:08;;;;;;;5.25;3.78;;;19.30;99.90;;;19.68;60.70;101558.28;5055211;28;20068;-62
2022/07/29 03:08:56;;;;;;;6.20;3.40;;;19.30;99.90;;;19.48;60.62;101523.13;5054910;28;20056;-62
2022/07/29 03:11:26;;;;;;;4.20;3.15;;;19.40;99.90;;;19.65;60.62;101553.00;5054719;28;20127;-62
2022/07/29 03:14:15;;;;;;;5.22;3.67;;;19.30;99.90;;;19.67;60.91;101556.50;5054772;28;20041;-62
2022/07/29 03:16:46;;;;;;;7.53;3.72;;;19.30;99.90;;;19.57;60.92;101555.03;5053654;28;20073;-62
2022/07/29 03:19:16;;;;;;;5.90;3.83;;;19.30;99.90;;;19.67;60.83;101559.19;5054116;28;20041;-62
2022/07/29 03:21:44;;;;;;;3.47;3.17;;;19.30;99.90;;;19.66;60.76;101557.47;5054590;28;20037;-62
2022/07/29 03:24:27;;;;;;;5.57;3.70;;;19.30;99.90;;;19.70;60.75;101557.28;5054535;28;20064;-62
2022/07/29 03:26:56;;;;;;;6.30;3.92;;;19.30;99.90;;;19.54;60.61;101558.72;5054575;28;20045;-62
2022/07/29 03:29:25;;;;;;;6.07;3.55;;;19.30;99.90;;;19.47;61.04;101558.94;5053097;28;20182;-62
2022/07/29 03:32:05;;;;;;;4.97;3.22;;;19.10;99.90;;;19.50;60.99;101548.09;5054391;28;20044;-62
2022/07/29 03:34:38;;;;;;;5.35;3.70;;;19.20;99.90;;;19.43;60.89;101535.81;5054701;28;20041;-62
2022/07/29 03:37:07;;;;;;;5.45;3.90;;;19.10;99.90;;;19.48;60.67;101549.94;5054308;28;20049;-62
2022/07/29 03:39:41;;;;;;;8.48;3.60;;;19.20;99.90;;;19.11;61.32;101491.09;5054747;28;20045;-62
2022/07/29 03:42:18;;;;;;;7.80;3.70;;;19.10;99.90;;;18.70;61.27;101427.06;5054122;28;20067;-62
2022/07/29 03:44:50;;;;;;;9.20;4.10;;;19.10;99.90;;;19.36;61.16;101548.50;5054685;28;20078;-62
2022/07/29 03:47:25;;;;;;;8.00;3.22;;;19.10;99.90;;;19.37;61.35;101547.59;5054339;28;20052;-62
2022/07/29 03:50:10;;;;;;;8.15;3.70;;;19.00;99.90;;;19.36;61.38;101556.56;5053978;28;20390;-62
2022/07/29 03:52:39;;;;;;;5.25;3.50;;;19.10;99.90;;;19.35;61.37;101552.13;5054246;28;20049;-62
2022/07/29 03:55:09;;;;;;;6.85;3.90;;;19.00;99.90;;;19.38;61.50;101543.09;5054138;28;20063;-62
2022/07/29 03:57:39;;;;;;;;;;;19.00;99.90;;;19.36;61.50;101553.00;5054566;28;20049;-62
2022/07/29 04:00:09;;;;;;;4.15;3.30;;;19.10;99.90;;;19.26;61.29;101536.25;5052582;28;19924;-62
2022/07/29 04:02:41;;;;;;;5.63;3.58;;;19.00;99.90;;;19.19;61.82;101556.16;5054090;28;20037;-62
2022/07/29 04:05:13;;;;;;;6.10;3.85;;;18.90;99.90;;;19.20;62.05;101548.97;5053735;28;20548;-62
2022/07/29 04:07:48;;;;;;;8.82;3.92;;;18.80;99.90;;;19.26;61.74;101555.03;5054017;28;20517;-62
2022/07/29 04:10:18;;;;;;;5.55;3.90;;;18.90;99.90;;;17.89;61.63;101325.78;5053618;28;20532;-62
2022/07/29 04:12:59;;;;;;;6.72;4.57;;;18.90;99.90;;;18.87;61.83;101498.06;5053598;28;20131;-62
2022/07/29 04:15:28;;;;;;;4.22;3.60;;;18.80;99.90;;;19.12;61.88;101538.47;5053751;28;20049;-62
2022/07/29 04:18:00;;;;;;;9.32;4.57;;;18.90;99.90;;;19.22;61.95;101553.34;5052413;28;20049;-62
2022/07/29 04:20:29;;;;;;;5.88;4.20;;;18.90;99.90;;;18.65;61.75;101459.38;5053546;28;20120;-62
2022/07/29 04:22:57;;;;;;;8.55;4.53;;;18.90;99.90;;;19.08;61.73;101530.56;5053372;28;20041;-62
2022/07/29 04:25:26;;;;;;;6.88;4.20;;;18.90;99.90;;;18.92;61.74;101506.88;5052375;28;20053;-62
2022/07/29 04:28:03;;;;;;;5.53;4.00;;;18.80;99.90;;;19.25;61.58;101553.28;5053498;28;20329;-61
2022/07/29 04:30:33;;;;;;;6.40;3.88;;;18.90;99.90;;;19.29;61.56;101557.66;5052425;28;20434;-62
2022/07/29 04:33:05;;;;;;;8.20;4.15;;;18.90;99.90;;;19.33;61.55;101558.47;5053452;28;20450;-62
2022/07/29 04:35:37;;;;;;;7.10;4.07;;;19.00;99.90;;;18.17;61.16;101358.03;5053359;28;20473;-62
2022/07/29 04:38:18;;;;;;;9.60;4.68;;;18.90;99.90;;;18.93;61.31;101492.53;5068651;28;20048;-62
2022/07/29 04:40:46;;;;;;;8.65;4.30;;;18.90;99.90;;;19.29;61.34;101549.59;5053092;28;20049;-62
2022/07/29 04:43:17;;;;;;;6.25;3.70;;;19.10;99.90;;;19.49;61.25;101567.84;5053139;28;20410;-62
2022/07/29 04:45:50;;;;;;;4.85;3.97;;;19.10;99.90;;;19.39;61.02;101544.88;5053025;28;20037;-62
2022/07/29 04:48:20;;;;;;;7.65;4.53;;;19.10;99.90;;;19.47;60.88;101564.31;5053264;28;20041;-62
2022/07/29 04:50:56;;;;;;;6.95;4.18;;;19.10;99.90;;;19.52;60.96;101567.72;5053008;28;20053;-62
2022/07/29 04:53:24;;;;;;;6.50;4.40;;;19.10;99.90;;;19.57;60.79;101565.75;5053059;28;20441;-62
2022/07/29 04:55:53;;;;;;;8.02;4.50;;;19.20;99.90;;;19.19;60.91;101504.28;5052955;28;20394;-62
2022/07/29 04:58:22;;;;;;;6.85;3.90;;;19.20;99.90;;;18.85;60.71;101440.06;5053181;28;20079;-62
2022/07/29 05:00:51;;;;;;;8.40;4.50;;;19.20;99.90;;;19.48;60.43;101556.19;5053007;28;20048;-62
2022/07/29 05:03:21;;;;;;;7.70;4.25;;;19.20;99.90;;;19.55;60.79;101567.66;5052708;28;20136;-62
2022/07/29 05:05:49;;;;;;;6.90;4.25;;;19.10;99.90;;;19.55;60.73;101581.06;5068516;28;20061;-62
2022/07/29 05:08:18;;;;;;;6.00;3.92;;;19.20;99.90;;;19.67;60.44;101578.00;5053062;28;20578;-62
2022/07/29 05:10:46;;;;;;;8.50;4.38;;;19.30;99.90;;;19.69;60.62;101568.09;5052981;28;20056;-62
2022/07/29 05:13:15;;;;;;;6.70;4.25;;;19.30;99.90;;;19.68;60.55;101561.84;5053073;28;20076;-61
2022/07/29 05:15:44;;;;;;;7.95;4.50;;;19.30;99.90;;;19.73;60.59;101567.06;5052705;28;20049;-62
2022/07/29 05:18:12;;;;;;;4.90;4.30;;;19.40;99.90;;;19.80;60.49;101579.41;5052922;28;20128;-61
2022/07/29 05:20:43;;;;;;;6.57;4.10;;;19.40;99.90;;;19.74;60.36;101567.00;5052802;28;20041;-62
2022/07/29 05:23:13;;;;;;;7.63;4.70;;;19.40;99.90;;;19.91;60.42;101582.63;5052772;28;20171;-62
2022/07/29 05:25:42;;;;;;;;;;;19.50;99.90;;;19.93;60.37;101579.88;5068760;28;20345;-62
2022/07/29 05:28:12;;;;;;;5.72;3.65;;;19.60;99.90;;;20.05;60.31;101580.38;5052604;28;19920;-62
2022/07/29 05:30:40;;;;;;;7.28;4.10;;;19.60;99.90;;;20.17;60.25;101585.34;5068207;28;20441;-62
2022/07/29 05:33:09;;;;;;;6.28;4.45;;;19.70;99.90;;;20.06;59.91;101546.31;5052455;28;20071;-62
2022/07/29 05:35:59;;;;;;;6.00;3.80;;;19.80;99.90;;;20.35;59.30;101578.50;5052060;28;20060;-62
2022/07/29 05:38:29;;;;;;;5.47;4.20;;;19.90;99.90;;;20.38;59.08;101568.53;5052472;28;20045;-62
2022/07/29 05:40:59;;;;;;;9.60;4.57;;;20.00;99.90;;;20.39;58.89;101580.19;5053016;28;20410;-62
2022/07/29 05:43:28;;;;;;;5.10;4.57;;;20.00;99.90;;;20.35;58.71;101583.88;5056332;28;20095;-62
2022/07/29 05:45:57;;;;;;;5.90;4.43;;;20.00;99.90;;;20.28;58.78;101560.84;5054993;28;20087;-62
2022/07/29 05:48:26;;;;;;;5.35;4.00;;;20.00;99.90;;;20.50;59.05;101580.69;5056380;28;20068;-62
2022/07/29 05:50:55;;;;;;;5.70;3.85;;;20.10;99.90;;;20.42;58.64;101586.31;5056076;28;20073;-62
2022/07/29 05:53:25;;;;;;;6.70;4.30;;;20.00;99.90;;;20.52;58.48;101587.78;5056278;28;20045;-62
2022/07/29 05:55:54;;;;;;;8.50;4.07;;;20.10;99.90;;;20.59;58.57;101599.22;5071866;28;20102;-62
2022/07/29 05:58:23;;;;;;;8.55;3.80;;;20.20;99.90;;;20.48;58.53;101569.09;5056439;28;20123;-62
2022/07/29 06:00:51;;;;;;;6.05;3.70;;;20.20;99.90;;;20.55;58.04;101598.44;5056161;28;20064;-62
2022/07/29 06:03:19;;;;;;;7.47;4.38;;;20.20;99.90;;;20.64;58.75;101603.50;5056104;28;20497;-62
2022/07/29 06:05:48;;;;;;;10.85;4.70;;;20.20;99.90;;;20.61;57.88;101605.41;5055909;28;20048;-62
2022/07/29 06:08:18;;;;;;;5.88;3.97;;;20.20;99.90;;;20.69;58.20;101597.97;5071639;28;20053;-62
2022/07/29 06:10:48;;;;;;;8.00;4.15;;;20.20;99.90;;;20.59;58.18;101596.53;5056176;28;20474;-62
2022/07/29 06:13:17;;;;;;;6.00;3.65;;;20.20;99.90;;;20.66;58.01;101588.19;5055958;28;20099;-62
2022/07/29 06:15:45;;;;;;;6.68;4.15;;;20.30;99.90;;;20.66;57.82;101590.88;5056169;28;20037;-62
2022/07/29 06:18:14;;;;;;;7.53;3.88;;;20.30;99.90;;;20.73;57.70;101593.38;5055850;28;20049;-62
2022/07/29 06:20:42;;;;;;;6.22;3.70;;;20.40;99.90;;;20.57;57.39;101560.75;5055743;28;20079;-62
2022/07/29 06:23:11;;;;;;;5.60;3.90;;;20.40;99.90;;;20.42;57.60;101532.56;5055616;28;20378;-62
2022/07/29 06:25:41;;;;;;;5.93;4.00;;;20.40;99.90;;;20.86;57.42;101603.66;5088247;28;20045;-62
2022/07/29 06:28:11;;;;;;;8.90;3.78;;;20.50;99.90;;;20.89;57.59;101606.22;5055791;28;20467;-62
2022/07/29 06:30:40;;;;;;;4.35;3.95;;;20.50;99.90;;;21.01;57.05;101608.50;5055709;28;20045;-62
2022/07/29 06:33:08;;;;;;;6.95;4.35;;;20.60;99.90;;;21.05;57.62;101590.44;5055592;28;20041;-62
2022/07/29 06:35:38;;;;;;;9.15;4.13;;;20.80;99.90;;;21.19;56.87;101591.72;5055505;28;20495;-63
2022/07/29 06:38:11;;;;;;;5.05;4.00;;;20.90;99.90;;;21.55;57.17;101619.97;5055516;28;20411;-63
2022/07/29 06:41:01;;;;;;;5.10;4.05;;;21.20;99.90;;;21.51;56.02;101603.97;5055504;28;20453;-62
2022/07/29 06:43:37;;;;;;;4.60;3.70;;;21.30;99.90;;;21.76;55.79;101620.94;5055567;28;20048;-62
2022/07/29 06:46:21;;;;;;;8.10;4.32;;;21.40;99.90;;;21.87;55.57;101618.78;5055274;28;20122;-62
2022/07/29 06:48:50;;;;;;;;;;;21.50;99.90;;;21.98;55.12;101611.13;5056275;28;20437;-62
2022/07/29 06:51:21;;;;;;;7.32;3.83;;;21.70;99.90;;;21.99;55.44;101587.78;5055768;28;19927;-62
2022/07/29 06:53:52;;;;;;;7.32;3.70;;;21.80;99.90;;;22.25;54.80;101626.19;5054072;28;20076;-63
2022/07/29 06:56:30;;;;;;;4.40;3.47;;;21.90;99.90;;;22.28;54.94;101620.66;5055399;28;20090;-59
2022/07/29 06:59:01;;;;;;;5.30;3.72;;;21.90;99.90;;;22.20;54.59;101603.94;5055143;28;20380;-59
2022/07/29 07:01:30;;;;;;;4.50;4.00;;;22.00;99.90;;;22.06;54.27;101555.13;5055207;28;20060;-60
2022/07/29 07:04:01;;;;;;;5.90;4.07;;;22.00;99.90;;;22.36;54.55;101596.97;5054889;28;20449;-60
2022/07/29 07:06:30;;;;;;;6.13;3.97;;;22.10;99.90;;;22.52;54.26;101624.19;5054985;28;20471;-60
2022/07/29 07:08:59;;;;;;;7.70;4.20;;;22.10;99.90;;;22.63;54.36;101631.88;5055073;28;20067;-61
2022/07/29 07:11:27;;;;;;;5.15;3.85;;;22.20;99.90;;;20.75;54.18;101287.63;5054949;28;20410;-60
2022/07/29 07:13:56;;;;;;;4.53;3.72;;;22.30;99.90;;;22.79;54.59;101631.16;5054676;28;20131;-60
2022/07/29 07:16:32;;;;;;;6.55;3.75;;;22.40;99.90;;;22.15;53.89;101511.59;5054791;28;20056;-60
2022/07/29 07:19:01;;;;;;;;;;;22.50;99.90;;;22.98;54.06;101640.22;5054750;28;20532;-60
2022/07/29 07:21:31;;;;;;;4.93;3.63;;;22.70;99.90;;;22.85;54.08;101617.41;5054712;28;19920;-62
2022/07/29 07:24:00;;;;;;;4.43;3.53;;;22.70;99.90;;;23.00;53.25;101649.13;5054889;28;20114;-59
2022/07/29 07:26:29;;;;;;;7.97;4.28;;;22.70;99.90;;;22.87;52.88;101645.19;5053331;28;20081;-60
2022/07/29 07:28:58;;;;;;;6.28;4.30;;;22.60;99.90;;;22.63;52.87;101589.56;5054665;28;20152;-59
2022/07/29 07:31:27;;;;;;;5.97;3.42;;;22.60;99.90;;;23.01;53.26;101650.00;5054686;28;20486;-60
2022/07/29 07:33:56;;;;;;;7.20;3.65;;;22.60;99.90;;;23.21;54.00;101645.47;5054341;28;20136;-60
2022/07/29 07:36:25;;;;;;;5.78;3.53;;;22.80;99.90;;;23.40;53.07;101650.09;5054630;28;20045;-60
2022/07/29 07:38:56;;;;;;;5.90;3.88;;;23.00;99.90;;;23.27;52.35;101633.53;5053205;28;20075;-60
2022/07/29 07:41:25;;;;;;;7.50;4.20;;;23.10;99.90;;;23.35;53.06;101644.00;5054250;28;20041;-60
2022/07/29 07:44:00;;;;;;;7.32;3.40;;;23.00;99.90;;;23.51;53.26;101636.97;5054623;28;20091;-59
2022/07/29 07:46:28;;;;;;;8.75;3.67;;;23.10;99.90;;;23.51;52.75;101609.97;5054158;28;20045;-60
2022/07/29 07:48:58;;;;;;;6.15;3.97;;;23.30;99.90;;;23.76;51.89;101643.91;5054148;28;20395;-59
2022/07/29 07:51:26;;;;;;;7.35;3.90;;;23.50;99.90;;;23.70;51.27;101656.81;5054022;28;20122;-60
2022/07/29 07:53:55;;;;;;;6.72;3.72;;;23.40;99.90;;;23.63;51.27;101622.91;5054273;28;20041;-60
2022/07/29 07:56:25;;;;;;;10.60;3.97;;;23.50;99.90;;;23.91;50.57;101656.69;5052953;28;20052;-61
2022/07/29 07:58:53;;;;;;;5.18;3.75;;;23.50;99.90;;;23.93;50.02;101649.38;5054009;28;20123;-60
2022/07/29 08:01:22;;;;;;;6.20;4.05;;;23.60;99.90;;;23.89;50.15;101636.97;5053592;28;20053;-60
2022/07/29 08:03:51;;;;;;;9.52;4.15;;;23.60;99.90;;;24.03;50.16;101639.94;5069183;28;20076;-60
2022/07/29 08:06:21;;;;;;;7.47;4.28;;;23.70;99.90;;;23.76;50.62;101616.88;5053827;28;20521;-60
2022/07/29 08:08:49;;;;;;;6.15;3.70;;;23.70;99.90;;;24.00;50.60;101623.81;5053694;28;20514;-60
2022/07/29 08:11:19;;;;;;;6.10;4.15;;;23.70;99.90;;;23.86;49.53;101626.31;5053993;28;20033;-62
2022/07/29 08:13:47;;;;;;;8.43;4.13;;;23.70;99.90;;;23.93;50.18;101646.69;5053649;28;20049;-64
2022/07/29 08:16:16;;;;;;;7.68;4.03;;;23.60;99.90;;;23.85;50.86;101651.56;5053697;28;20068;-63
2022/07/29 08:18:46;;;;;;;8.13;3.85;;;23.40;99.90;;;23.98;51.39;101628.41;5053864;28;20049;-63
2022/07/29 08:21:15;;;;;;;;;;;23.60;99.90;;;24.25;50.14;101649.72;5053107;28;20045;-60
2022/07/29 08:23:49;;;;;;;7.05;3.53;;;23.90;99.90;;;24.43;50.35;101640.72;5053474;28;19940;-60
2022/07/29 08:26:28;;;;;;;4.95;3.70;;;24.00;99.90;;;24.39;50.22;101606.66;5053518;28;20040;-60
2022/07/29 08:28:56;;;;;;;8.18;4.10;;;24.20;99.90;;;24.61;49.43;101648.78;5053715;28;20102;-60
2022/07/29 08:31:25;;;;;;;7.25;4.25;;;24.30;99.90;;;23.72;51.64;101622.47;5053875;28;20119;-60
2022/07/29 08:33:55;;;;;;;7.68;4.00;;;23.60;99.90;;;24.17;52.60;101631.16;5053709;28;20049;-60
2022/07/29 08:36:26;;;;;;;7.20;4.05;;;23.70;99.90;;;24.12;51.82;101576.41;5052422;28;20045;-60
2022/07/29 08:38:56;;;;;;;6.13;4.40;;;24.10;99.90;;;24.64;50.30;101642.34;5053956;28;20057;-60
2022/07/29 08:41:25;;;;;;;7.68;3.90;;;24.30;99.90;;;24.77;49.31;101657.03;5053244;28;20068;-61
2022/07/29 08:43:54;;;;;;;5.65;3.75;;;24.40;99.90;;;24.23;50.48;101660.63;5053122;28;20040;-60
2022/07/29 08:46:24;;;;;;;6.53;3.65;;;24.00;99.90;;;23.95;51.48;101563.69;5085675;28;20383;-60
2022/07/29 08:48:53;;;;;;;5.68;3.70;;;24.10;99.90;;;24.69;50.66;101656.50;5053162;28;20048;-60
2022/07/29 08:51:22;;;;;;;7.43;3.80;;;24.30;99.90;;;24.46;51.04;101648.66;5053618;28;20071;-62
2022/07/29 08:53:56;;;;;;;6.35;3.90;;;24.20;99.90;;;24.25;50.57;101663.25;5053262;28;20102;-61
2022/07/29 08:56:25;;;;;;;5.15;3.55;;;24.00;99.90;;;24.20;50.68;101651.78;5053160;28;20071;-60
2022/07/29 08:58:55;;;;;;;7.30;4.63;;;23.90;99.90;;;24.44;50.97;101669.50;5068598;28;20064;-60
2022/07/29 09:01:26;;;;;;;7.25;4.45;;;24.00;99.90;;;24.35;51.16;101640.22;5068202;28;20132;-59
2022/07/29 09:04:07;;;;;;;6.70;4.28;;;24.10;99.90;;;24.74;51.95;101643.63;5053197;28;20037;-60
2022/07/29 09:06:39;;;;;;;5.40;3.90;;;24.40;99.90;;;25.15;51.04;101666.78;5053145;28;20067;-60
2022/07/29 09:09:09;;;;;;;8.57;3.65;;;24.80;99.90;;;25.21;49.27;101657.44;5053036;28;20126;-61
2022/07/29 09:11:38;;;;;;;7.15;3.63;;;24.80;99.90;;;25.37;48.71;101645.75;5052725;28;20429;-60
2022/07/29 09:14:07;;;;;;;7.72;3.97;;;25.10;99.90;;;25.41;48.93;101654.59;5052712;28;20465;-60
2022/07/29 09:17:02;;;;;;;6.65;3.90;;;25.10;99.90;;;25.43;49.10;101661.72;5056452;28;20091;-60
2022/07/29 09:19:34;;;;;;;9.57;4.35;;;25.10;99.90;;;24.95;49.11;101650.69;5046873;28;20061;-60
2022/07/29 09:22:06;;;;;;;7.95;4.65;;;24.80;99.90;;;25.28;50.22;101659.75;5059334;28;20037;-61
2022/07/29 09:24:42;;;;;;;5.90;3.90;;;24.90;99.90;;;25.40;48.83;101642.88;5059497;28;20072;-61
2022/07/29 09:27:20;;;;;;;9.88;4.05;;;25.20;99.90;;;25.30;48.71;101633.47;5059347;28;20041;-60
2022/07/29 09:29:57;;;;;;;7.40;4.25;;;25.10;99.90;;;25.31;48.60;101594.59;5059362;28;20037;-60
2022/07/29 09:32:26;;;;;;;9.13;4.63;;;25.30;99.90;;;25.64;48.06;101628.03;5059588;28;20072;-59
2022/07/29 09:35:17;;;;;;;9.60;4.07;;;25.40;99.90;;;25.85;47.99;101653.06;5059517;28;20073;-60
2022/07/29 09:37:47;;;;;;;6.53;4.03;;;25.50;99.90;;;25.83;48.45;101658.59;5059543;28;20045;-60
2022/07/29 09:40:20;;;;;;;7.82;4.13;;;25.60;99.90;;;25.79;47.94;101638.03;5059522;28;20055;-61
2022/07/29 09:42:49;;;;;;;8.07;4.20;;;25.60;99.90;;;26.14;47.79;101651.47;5058355;28;20045;-60
2022/07/29 09:45:30;;;;;;;8.15;3.67;;;25.80;99.90;;;26.31;46.78;101651.38;5059041;28;20546;-60
2022/07/29 09:48:02;;;;;;;8.82;3.97;;;26.10;99.90;;;25.10;46.37;101468.47;5058129;28;20483;-60
2022/07/29 09:50:39;;;;;;;6.00;3.80;;;26.20;99.90;;;26.37;45.84;101642.91;5059218;28;20041;-60
2022/07/29 09:53:09;;;;;;;5.18;3.78;;;26.10;99.90;;;26.69;46.73;101659.06;5059087;28;20075;-60
2022/07/29 09:55:49;;;;;;;9.15;3.65;;;26.30;99.90;;;26.84;45.31;101657.34;5059333;28;20051;-60
2022/07/29 09:58:21;;;;;;;5.85;3.45;;;26.50;99.90;;;26.84;45.86;101657.34;5059325;28;20041;-60
2022/07/29 10:00:52;;;;;;;5.32;3.58;;;26.70;99.90;;;26.99;45.27;101655.53;5059294;28;20056;-60
2022/07/29 10:03:21;;;;;;;9.35;3.85;;;26.70;99.90;;;26.65;44.82;101615.91;5058925;28;20041;-60
2022/07/29 10:06:08;;;;;;;6.47;3.28;;;26.60;99.90;;;27.00;44.91;101633.72;5059160;28;20091;-60
2022/07/29 10:08:37;;;;;;;4.75;3.38;;;26.80;99.90;;;27.32;45.06;101659.84;5059033;28;20049;-59
2022/07/29 10:11:15;;;;;;;6.53;4.07;;;26.90;99.90;;;27.14;44.83;101608.44;5058019;28;20045;-59
2022/07/29 10:13:46;;;;;;;8.80;3.83;;;27.10;99.90;;;27.03;44.35;101560.19;5058946;28;20033;-61
2022/07/29 10:16:16;;;;;;;7.10;3.40;;;27.30;99.90;;;27.31;43.32;101609.13;5058813;28;20044;-60
2022/07/29 10:18:46;;;;;;;5.05;3.35;;;27.30;99.90;;;26.62;44.12;101648.66;5059389;28;20040;-61
2022/07/29 10:21:15;;;;;;;9.32;3.45;;;26.60;99.90;;;25.76;45.13;101619.19;5058941;28;20082;-62
2022/07/29 10:24:05;;;;;;;4.80;3.42;;;25.70;99.90;;;26.45;45.57;101652.34;5059039;28;20094;-61
2022/07/29 10:26:45;;;;;;;7.10;3.58;;;26.00;99.90;;;26.52;45.59;101655.56;5058629;28;20073;-62
2022/07/29 10:29:14;;;;;;;7.90;4.03;;;26.00;99.90;;;25.85;46.49;101604.25;5055883;28;20045;-61
2022/07/29 10:31:53;;;;;;;7.72;4.00;;;25.80;99.90;;;26.41;45.96;101648.06;5055528;28;20398;-61
2022/07/29 10:34:37;;;;;;;7.57;3.70;;;25.90;99.90;;;26.73;46.60;101643.53;5054380;28;20052;-60
2022/07/29 10:37:25;;;;;;;6.63;4.32;;;26.30;99.90;;;26.23;46.30;101637.41;5055645;28;20056;-61